Avon Park, Florida
Current Conditions -  °F | °C
As of 9:50 AM on Thursday 23 Oct 2014 (Local Time) from KBOW Reporting Station
Few Clouds Few Clouds  
Wind Chill: 72°   Ceiling: Unl
Heat Index: 72°   Visibility: 10mi
Dew Point: 57°   Wind: 8mph
Humidity: 60%   Direction: 70°ENE
Pressure: 30.01"   Gusts: NA
Location:  27.6°N, 81.51°W
Report Text: KBOW 231350Z 07007KT 10SM FEW150 22/14 A3001
Loading
Personal Weather Stations






























Interactive Weather Map
Tropical Storm Tracking
New forecast layout! Learn more

10-Day Weather Forecast

Advertisements
Track Severe Weather on mobile